createdAt,value
2018-05-08T00:00:49.203Z,6.50
2018-05-08T00:03:16.695Z,6.83
2018-05-08T00:05:44.209Z,6.20
2018-05-08T00:08:11.793Z,6.33
2018-05-08T00:10:39.307Z,6.07
2018-05-08T00:13:06.813Z,6.40
2018-05-08T00:15:34.333Z,7.17
2018-05-08T00:18:01.899Z,7.13
2018-05-08T00:20:29.398Z,7.77
2018-05-08T00:22:56.893Z,6.97
2018-05-08T00:25:24.412Z,7.30
2018-05-08T00:27:51.975Z,7.43
2018-05-08T00:30:19.501Z,7.70
2018-05-08T00:32:47.398Z,7.93
2018-05-08T00:35:14.901Z,7.87
2018-05-08T00:37:42.430Z,7.43
2018-05-08T00:40:09.957Z,7.57
2018-05-08T00:42:37.454Z,7.57
2018-05-08T00:45:04.976Z,7.07
2018-05-08T00:47:32.473Z,7.90
2018-05-08T00:49:59.968Z,7.07
2018-05-08T00:52:27.490Z,7.53
2018-05-08T00:55:06.966Z,7.53
2018-05-08T00:57:34.529Z,7.03
2018-05-08T01:00:02.090Z,7.97
2018-05-08T01:02:29.678Z,7.67
2018-05-08T01:04:57.266Z,7.67
2018-05-08T01:07:24.786Z,7.53
2018-05-08T01:09:52.311Z,7.57
2018-05-08T01:12:19.830Z,6.97
2018-05-08T01:14:47.363Z,7.50
2018-05-08T01:17:14.864Z,7.93
2018-05-08T01:19:42.441Z,7.03
2018-05-08T01:22:10.031Z,7.00
2018-05-08T01:24:37.513Z,6.80
2018-05-08T01:27:05.016Z,6.70
2018-05-08T01:29:32.521Z,7.27
2018-05-08T01:32:00.082Z,7.73
2018-05-08T01:34:27.613Z,7.30
2018-05-08T01:36:55.133Z,6.73
2018-05-08T01:39:22.640Z,6.83
2018-05-08T01:41:50.217Z,6.77
2018-05-08T01:44:17.809Z,7.00
2018-05-08T01:46:45.405Z,7.23
2018-05-08T01:49:12.921Z,6.40
2018-05-08T01:51:40.470Z,6.87
2018-05-08T01:54:08.096Z,6.20
2018-05-08T01:56:35.645Z,6.63
2018-05-08T01:59:03.144Z,6.57
2018-05-08T02:01:30.650Z,6.63
2018-05-08T02:03:58.214Z,7.60
2018-05-08T02:06:25.732Z,6.57
2018-05-08T02:08:53.252Z,6.87
2018-05-08T02:11:20.806Z,7.23
2018-05-08T02:13:48.302Z,7.07
2018-05-08T02:16:15.799Z,7.53
2018-05-08T02:18:43.348Z,7.23
2018-05-08T02:21:10.847Z,7.43
2018-05-08T02:23:38.362Z,7.97
2018-05-08T02:26:05.997Z,7.33
2018-05-08T02:28:33.485Z,8.33
2018-05-08T02:31:00.979Z,7.60
2018-05-08T02:33:28.484Z,8.90
2018-05-08T02:35:56.038Z,8.70
2018-05-08T02:38:23.541Z,8.87
2018-05-08T02:40:51.054Z,8.67
2018-05-08T02:43:18.668Z,8.17
2018-05-08T02:45:46.167Z,9.20
2018-05-08T02:48:13.680Z,8.80
2018-05-08T02:50:41.498Z,8.23
2018-05-08T02:53:09.002Z,8.73
2018-05-08T02:55:36.525Z,8.30
2018-05-08T02:58:04.034Z,9.43
2018-05-08T03:00:31.532Z,9.00
2018-05-08T03:02:59.063Z,8.47
2018-05-08T03:05:26.563Z,9.50
2018-05-08T03:07:55.011Z,9.40
2018-05-08T03:10:22.489Z,9.33
2018-05-08T03:12:50.000Z,8.63
2018-05-08T03:15:17.508Z,8.37
2018-05-08T03:17:45.003Z,8.30
2018-05-08T03:20:12.511Z,8.60
2018-05-08T03:22:40.030Z,7.13
2018-05-08T03:25:07.560Z,7.37
2018-05-08T03:27:35.106Z,8.03
2018-05-08T03:30:02.620Z,9.70
2018-05-08T03:32:30.169Z,7.47
2018-05-08T03:34:57.746Z,8.37
2018-05-08T03:37:25.277Z,8.07
2018-05-08T03:39:52.855Z,8.50
2018-05-08T03:42:20.339Z,6.67
2018-05-08T03:44:47.865Z,7.27
2018-05-08T03:47:15.363Z,6.77
2018-05-08T03:49:42.906Z,7.90
2018-05-08T03:52:10.422Z,8.83
2018-05-08T03:54:37.980Z,7.63
2018-05-08T03:57:05.500Z,7.77
2018-05-08T03:59:33.061Z,8.10
2018-05-08T04:02:06.595Z,8.77
2018-05-08T04:04:39.876Z,7.53
2018-05-08T04:07:13.246Z,8.17
2018-05-08T04:09:40.803Z,8.20
2018-05-08T04:12:08.361Z,7.67
2018-05-08T04:14:35.869Z,8.03
2018-05-08T04:17:03.394Z,7.80
2018-05-08T04:19:30.905Z,8.60
2018-05-08T04:21:58.428Z,8.13
2018-05-08T04:24:25.924Z,8.03
2018-05-08T04:26:53.476Z,8.33
2018-05-08T04:29:20.980Z,7.53
2018-05-08T04:31:48.486Z,8.00
2018-05-08T04:34:15.994Z,8.33
2018-05-08T04:36:43.593Z,7.47
2018-05-08T04:39:11.061Z,8.20
2018-05-08T04:41:38.610Z,9.00
2018-05-08T04:44:06.158Z,8.07
2018-05-08T04:46:33.681Z,8.20
2018-05-08T04:49:02.183Z,8.17
2018-05-08T04:51:29.678Z,9.17
2018-05-08T04:53:57.185Z,7.53
2018-05-08T04:56:24.705Z,8.03
2018-05-08T04:58:52.257Z,7.47
2018-05-08T05:01:19.760Z,8.03
2018-05-08T05:03:47.300Z,8.23
2018-05-08T05:06:14.819Z,7.17
2018-05-08T05:08:42.315Z,7.73
2018-05-08T05:11:09.847Z,7.90
2018-05-08T05:13:37.352Z,7.90
2018-05-08T05:16:04.921Z,8.47
2018-05-08T05:18:32.425Z,8.63
2018-05-08T05:20:59.949Z,8.50
2018-05-08T05:23:27.452Z,7.80
2018-05-08T05:25:54.960Z,8.43
2018-05-08T05:28:22.467Z,8.00
2018-05-08T05:30:49.965Z,8.63
2018-05-08T05:33:17.484Z,8.50
2018-05-08T05:35:44.991Z,8.50
2018-05-08T05:38:12.509Z,8.60
2018-05-08T05:40:40.025Z,7.77
2018-05-08T05:43:07.542Z,8.77
2018-05-08T05:45:35.041Z,8.27
2018-05-08T05:48:03.037Z,8.47
2018-05-08T05:50:30.534Z,8.40
2018-05-08T05:52:58.057Z,9.20
2018-05-08T05:55:25.575Z,8.07
2018-05-08T05:57:53.078Z,7.33
2018-05-08T06:00:20.678Z,8.97
2018-05-08T06:02:48.410Z,7.47
2018-05-08T06:05:16.207Z,7.70
2018-05-08T06:07:43.715Z,7.83
2018-05-08T06:10:11.244Z,8.27
2018-05-08T06:12:39.162Z,8.47
2018-05-08T06:15:06.725Z,8.20
2018-05-08T06:17:34.227Z,8.00
2018-05-08T06:20:01.775Z,7.57
2018-05-08T06:22:29.360Z,7.60
2018-05-08T06:24:56.854Z,7.50
2018-05-08T06:27:24.592Z,7.73
2018-05-08T06:29:52.153Z,7.57
2018-05-08T06:32:19.653Z,7.93
2018-05-08T06:34:47.167Z,7.73
2018-05-08T06:37:14.803Z,7.70
2018-05-08T06:39:42.330Z,8.13
2018-05-08T06:42:09.829Z,7.97
2018-05-08T06:44:37.382Z,7.83
2018-05-08T06:47:04.949Z,7.20
2018-05-08T06:49:32.491Z,8.03
2018-05-08T06:52:00.634Z,7.60
2018-05-08T06:54:28.140Z,6.83
2018-05-08T06:56:55.682Z,8.07
2018-05-08T06:59:23.209Z,7.83
2018-05-08T07:01:50.750Z,7.63
2018-05-08T07:04:18.327Z,8.40
2018-05-08T07:06:45.837Z,8.97
2018-05-08T07:09:13.415Z,7.63
2018-05-08T07:11:40.936Z,8.17
2018-05-08T07:14:08.454Z,7.73
2018-05-08T07:16:35.973Z,7.87
2018-05-08T07:19:03.492Z,8.07
2018-05-08T07:21:31.010Z,8.20
2018-05-08T07:23:59.185Z,7.80
2018-05-08T07:26:26.690Z,8.03
2018-05-08T07:28:54.208Z,8.17
2018-05-08T07:31:21.747Z,8.23
2018-05-08T07:33:49.249Z,7.33
2018-05-08T07:36:16.789Z,7.30
2018-05-08T07:38:44.431Z,6.47
2018-05-08T07:41:12.049Z,7.23
2018-05-08T07:43:39.558Z,9.27
2018-05-08T07:46:07.075Z,7.63
2018-05-08T07:48:34.586Z,7.17
2018-05-08T07:51:02.309Z,6.63
2018-05-08T07:53:29.825Z,7.30
2018-05-08T07:55:58.049Z,8.40
2018-05-08T07:58:25.557Z,8.00
2018-05-08T08:00:53.086Z,7.30
2018-05-08T08:03:20.661Z,6.80
2018-05-08T08:05:48.170Z,7.17
2018-05-08T08:08:15.686Z,7.77
2018-05-08T08:10:43.196Z,7.67
2018-05-08T08:13:10.702Z,7.60
2018-05-08T08:15:38.222Z,8.03
2018-05-08T08:18:05.850Z,7.90
2018-05-08T08:20:33.382Z,7.63
2018-05-08T08:23:00.879Z,7.47
2018-05-08T08:25:28.392Z,7.70
2018-05-08T08:27:55.934Z,7.20
2018-05-08T08:30:23.446Z,7.83
2018-05-08T08:32:51.233Z,7.60
2018-05-08T08:35:18.936Z,7.30
2018-05-08T08:37:46.434Z,7.20
2018-05-08T08:40:13.953Z,7.53
2018-05-08T08:42:41.461Z,7.50
2018-05-08T08:45:08.987Z,7.60
2018-05-08T08:47:36.590Z,7.00
2018-05-08T08:50:04.101Z,7.27
2018-05-08T08:52:31.723Z,7.23
2018-05-08T08:54:59.251Z,7.73
2018-05-08T08:57:26.913Z,7.63
2018-05-08T08:59:54.817Z,7.27
2018-05-08T09:02:22.682Z,7.23
2018-05-08T09:04:50.244Z,7.40
2018-05-08T09:07:18.041Z,6.97
2018-05-08T09:09:45.553Z,7.63
2018-05-08T09:12:13.052Z,6.67
2018-05-08T09:14:40.950Z,7.63
2018-05-08T09:17:08.461Z,7.37
2018-05-08T09:19:35.962Z,6.90
2018-05-08T09:22:03.481Z,7.27
2018-05-08T09:24:30.974Z,6.70
2018-05-08T09:26:58.470Z,7.30
2018-05-08T09:29:25.981Z,7.07
2018-05-08T09:31:53.531Z,7.20
2018-05-08T09:34:21.065Z,7.03
2018-05-08T09:36:48.849Z,26.00
2018-05-08T09:39:16.702Z,7.30
2018-05-08T09:41:44.200Z,7.23
2018-05-08T09:44:11.722Z,6.37
2018-05-08T09:46:39.231Z,6.80
2018-05-08T09:49:06.802Z,6.10
2018-05-08T09:51:34.276Z,6.97
2018-05-08T09:54:01.805Z,5.90
2018-05-08T09:56:29.333Z,5.93
2018-05-08T09:58:56.830Z,5.93
2018-05-08T10:01:24.526Z,5.53
2018-05-08T10:03:52.076Z,6.10
2018-05-08T10:06:19.578Z,5.30
2018-05-08T10:08:47.086Z,5.13
2018-05-08T10:11:14.593Z,5.37
2018-05-08T10:13:42.099Z,7.50
2018-05-08T10:16:09.671Z,6.33
2018-05-08T10:18:37.182Z,5.93
2018-05-08T10:21:04.706Z,6.70
2018-05-08T10:23:32.199Z,6.20
2018-05-08T10:25:59.715Z,6.30
2018-05-08T10:28:27.261Z,6.20
2018-05-08T10:30:54.753Z,6.37
2018-05-08T10:33:22.265Z,6.20
2018-05-08T10:35:49.858Z,6.23
2018-05-08T10:38:17.349Z,5.87
2018-05-08T10:40:44.873Z,5.80
2018-05-08T10:43:12.445Z,6.43
2018-05-08T10:45:39.940Z,5.47
2018-05-08T10:48:07.654Z,5.73
2018-05-08T10:50:35.153Z,6.17
2018-05-08T10:53:02.750Z,5.97
2018-05-08T10:55:30.274Z,6.57
2018-05-08T10:57:57.765Z,6.10
2018-05-08T11:00:25.266Z,5.93
2018-05-08T11:02:52.769Z,5.63
2018-05-08T11:05:20.260Z,5.40
2018-05-08T11:07:48.329Z,5.10
2018-05-08T11:10:15.848Z,5.40
2018-05-08T11:12:43.378Z,5.03
2018-05-08T11:15:10.865Z,5.40
2018-05-08T11:17:38.391Z,5.57
2018-05-08T11:20:05.898Z,5.93
2018-05-08T11:22:33.394Z,4.93
2018-05-08T11:25:00.898Z,5.10
2018-05-08T11:27:28.414Z,5.40
2018-05-08T11:29:55.900Z,5.20
2018-05-08T11:32:23.390Z,5.20
2018-05-08T11:34:50.889Z,5.13
2018-05-08T11:37:18.405Z,5.00
2018-05-08T11:39:45.963Z,4.93
2018-05-08T11:42:13.565Z,5.47
2018-05-08T11:44:41.104Z,5.07
2018-05-08T11:47:08.650Z,5.23
2018-05-08T11:49:36.417Z,5.77
2018-05-08T11:52:03.926Z,4.90
2018-05-08T11:54:31.426Z,5.47
2018-05-08T11:56:58.945Z,5.37
2018-05-08T11:59:26.474Z,5.00
2018-05-08T12:01:53.985Z,5.50
2018-05-08T12:04:21.477Z,5.30
2018-05-08T12:06:48.972Z,4.23
2018-05-08T12:09:16.598Z,4.70
2018-05-08T12:11:44.164Z,5.20
2018-05-08T12:14:11.677Z,4.97
2018-05-08T12:16:39.181Z,4.97
2018-05-08T12:19:06.707Z,4.67
2018-05-08T12:21:34.213Z,5.13
2018-05-08T12:24:01.710Z,4.17
2018-05-08T12:26:29.219Z,7.20
2018-05-08T12:28:56.742Z,6.37
2018-05-08T12:31:24.251Z,5.53
2018-05-08T12:33:51.766Z,4.30
2018-05-08T12:36:19.347Z,4.10
2018-05-08T12:38:46.862Z,4.80
2018-05-08T12:41:14.362Z,3.90
2018-05-08T12:43:42.028Z,4.20
2018-05-08T12:46:09.591Z,3.77
2018-05-08T12:48:37.094Z,4.20
2018-05-08T12:51:04.628Z,4.10
2018-05-08T12:53:32.151Z,4.00
2018-05-08T12:55:59.646Z,3.90
2018-05-08T12:58:27.148Z,4.07
2018-05-08T13:00:54.642Z,3.70
2018-05-08T13:03:22.141Z,2.57
2018-05-08T13:05:49.667Z,1.80
2018-05-08T13:08:17.179Z,2.10
2018-05-08T13:10:45.265Z,2.10
2018-05-08T13:13:12.842Z,1.97
2018-05-08T13:15:40.407Z,1.73
2018-05-08T13:18:07.942Z,1.63
2018-05-08T13:20:35.487Z,2.30
2018-05-08T13:23:02.990Z,1.70
2018-05-08T13:25:30.511Z,1.67
2018-05-08T13:27:58.004Z,2.77
2018-05-08T13:30:25.557Z,1.70
2018-05-08T13:32:53.062Z,1.70
2018-05-08T13:35:20.558Z,2.27
2018-05-08T13:37:48.096Z,2.00
2018-05-08T13:40:15.603Z,2.00
2018-05-08T13:42:43.194Z,2.27
2018-05-08T13:45:10.709Z,1.87
2018-05-08T13:47:38.735Z,1.70
2018-05-08T13:50:06.291Z,1.80
2018-05-08T13:52:33.811Z,1.80
2018-05-08T13:55:01.373Z,2.00
2018-05-08T13:57:28.924Z,2.20
2018-05-08T13:59:56.437Z,1.77
2018-05-08T14:02:23.940Z,2.27
2018-05-08T14:04:51.452Z,2.33
2018-05-08T14:07:19.030Z,2.00
2018-05-08T14:09:46.533Z,2.10
2018-05-08T14:12:14.061Z,1.67
2018-05-08T14:14:41.566Z,2.03
2018-05-08T14:17:09.071Z,1.90
2018-05-08T14:19:36.729Z,1.60
2018-05-08T14:22:04.264Z,1.70
2018-05-08T14:24:31.771Z,1.93
2018-05-08T14:26:59.281Z,1.67
2018-05-08T14:29:26.777Z,2.00
2018-05-08T14:31:54.278Z,1.50
2018-05-08T14:34:21.779Z,1.77
2018-05-08T14:36:49.285Z,1.70
2018-05-08T14:39:16.781Z,1.50
2018-05-08T14:41:44.284Z,1.60
2018-05-08T14:44:11.774Z,1.47
2018-05-08T14:46:39.370Z,1.50
2018-05-08T14:49:06.873Z,1.87
2018-05-08T14:51:34.426Z,1.90
2018-05-08T14:54:01.955Z,2.63
2018-05-08T14:56:29.512Z,2.20
2018-05-08T14:58:57.165Z,2.37
2018-05-08T15:01:24.609Z,2.23
2018-05-08T15:03:52.132Z,3.23
2018-05-08T15:06:19.631Z,2.23
2018-05-08T15:08:47.215Z,2.27
2018-05-08T15:11:14.744Z,2.50
2018-05-08T15:13:42.271Z,2.70
2018-05-08T15:16:09.793Z,2.43
2018-05-08T15:18:37.296Z,2.07
2018-05-08T15:21:04.810Z,2.27
2018-05-08T15:23:32.369Z,2.33
2018-05-08T15:25:59.903Z,2.50
2018-05-08T15:28:27.409Z,2.50
2018-05-08T15:30:54.895Z,2.47
2018-05-08T15:33:22.387Z,2.07
2018-05-08T15:35:49.910Z,2.30
2018-05-08T15:38:17.428Z,2.57
2018-05-08T15:40:44.932Z,2.20
2018-05-08T15:43:12.458Z,1.80
2018-05-08T15:45:39.955Z,2.10
2018-05-08T15:48:07.489Z,2.50
2018-05-08T15:50:35.100Z,2.20
2018-05-08T15:53:02.683Z,2.43
2018-05-08T15:55:30.391Z,2.53
2018-05-08T15:57:57.881Z,2.10
2018-05-08T16:00:25.391Z,2.40
2018-05-08T16:02:52.918Z,2.30
2018-05-08T16:05:20.603Z,2.30
2018-05-08T16:07:48.129Z,2.40
2018-05-08T16:10:15.801Z,2.30
2018-05-08T16:12:43.303Z,2.50
2018-05-08T16:15:10.798Z,2.40
2018-05-08T16:17:38.301Z,2.60
2018-05-08T16:20:05.791Z,2.90
2018-05-08T16:22:33.302Z,2.80
2018-05-08T16:25:00.813Z,3.07
2018-05-08T16:27:28.369Z,3.50
2018-05-08T16:29:55.887Z,3.20
2018-05-08T16:32:23.386Z,2.93
2018-05-08T16:34:50.893Z,3.30
2018-05-08T16:37:18.392Z,3.20
2018-05-08T16:39:45.906Z,2.50
2018-05-08T16:42:13.413Z,2.30
2018-05-08T16:44:40.906Z,2.80
2018-05-08T16:47:08.494Z,2.63
2018-05-08T16:49:36.033Z,2.60
2018-05-08T16:52:03.564Z,2.17
2018-05-08T16:54:31.070Z,2.57
2018-05-08T16:56:58.772Z,2.20
2018-05-08T16:59:26.329Z,2.30
2018-05-08T17:01:53.857Z,2.97
2018-05-08T17:04:21.359Z,2.57
2018-05-08T17:06:48.872Z,2.27
2018-05-08T17:09:16.370Z,2.17
2018-05-08T17:11:43.954Z,2.40
2018-05-08T17:14:11.486Z,1.90
2018-05-08T17:16:39.012Z,2.60
2018-05-08T17:19:06.611Z,2.33
2018-05-08T17:21:34.066Z,2.90
2018-05-08T17:24:01.573Z,2.43
2018-05-08T17:26:29.110Z,2.80
2018-05-08T17:28:56.613Z,2.10
2018-05-08T17:31:24.213Z,2.80
2018-05-08T17:33:51.749Z,2.63
2018-05-08T17:36:19.266Z,2.60
2018-05-08T17:38:46.769Z,2.50
2018-05-08T17:41:14.259Z,2.70
2018-05-08T17:43:41.750Z,2.40
2018-05-08T17:46:09.301Z,2.53
2018-05-08T17:48:36.842Z,2.50
2018-05-08T17:51:04.335Z,2.20
2018-05-08T17:53:31.881Z,2.07
2018-05-08T17:55:59.474Z,2.33
2018-05-08T17:58:26.979Z,2.10
2018-05-08T18:00:54.474Z,2.57
2018-05-08T18:03:22.034Z,2.13
2018-05-08T18:05:49.568Z,2.20
2018-05-08T18:08:17.088Z,2.47
2018-05-08T18:10:44.581Z,2.20
2018-05-08T18:13:12.209Z,2.27
2018-05-08T18:15:39.698Z,2.63
2018-05-08T18:18:07.195Z,2.60
2018-05-08T18:20:34.702Z,2.27
2018-05-08T18:23:02.242Z,2.07
2018-05-08T18:25:29.740Z,2.20
2018-05-08T18:27:57.254Z,2.13
2018-05-08T18:30:24.758Z,2.70
2018-05-08T18:32:52.297Z,3.63
2018-05-08T18:35:19.871Z,2.90
2018-05-08T18:37:47.394Z,2.87
2018-05-08T18:40:14.905Z,3.03
2018-05-08T18:42:42.397Z,2.50
2018-05-08T18:45:09.906Z,2.90
2018-05-08T18:47:37.410Z,2.80
2018-05-08T18:50:04.938Z,2.83
2018-05-08T18:52:32.454Z,3.17
2018-05-08T18:54:59.971Z,2.80
2018-05-08T18:57:27.470Z,2.83
2018-05-08T19:00:00.630Z,2.67
2018-05-08T19:02:28.163Z,2.97
2018-05-08T19:04:55.680Z,2.60
2018-05-08T19:07:23.469Z,2.27
2018-05-08T19:09:51.118Z,2.17
2018-05-08T19:12:18.683Z,1.80
2018-05-08T19:14:46.375Z,2.10
2018-05-08T19:17:13.908Z,1.50
2018-05-08T19:19:47.038Z,1.80
2018-05-08T19:22:14.537Z,2.00
2018-05-08T19:24:42.030Z,1.70
2018-05-08T19:27:09.525Z,2.00
2018-05-08T19:29:42.804Z,1.70
2018-05-08T19:32:10.327Z,1.77
2018-05-08T19:34:43.518Z,2.40
2018-05-08T19:37:16.575Z,2.53
2018-05-08T19:39:44.595Z,2.27
2018-05-08T19:42:12.110Z,2.20
2018-05-08T19:44:39.609Z,2.43
2018-05-08T19:47:07.103Z,2.43
2018-05-08T19:49:34.589Z,2.20
2018-05-08T19:52:02.094Z,2.87
2018-05-08T19:54:29.585Z,2.30
2018-05-08T19:56:57.099Z,2.70
2018-05-08T19:59:24.636Z,2.47
2018-05-08T20:01:52.136Z,1.83
2018-05-08T20:04:19.649Z,2.37
2018-05-08T20:06:47.168Z,2.10
2018-05-08T20:09:14.678Z,2.00
2018-05-08T20:11:42.223Z,1.90
2018-05-08T20:14:09.744Z,2.40
2018-05-08T20:16:37.298Z,1.80
2018-05-08T20:19:04.801Z,2.60
2018-05-08T20:21:32.311Z,1.83
2018-05-08T20:23:59.799Z,2.03
2018-05-08T20:26:27.294Z,2.10
2018-05-08T20:28:54.798Z,2.30
2018-05-08T20:31:22.320Z,2.10
2018-05-08T20:33:49.831Z,2.60
2018-05-08T20:36:17.434Z,2.30
2018-05-08T20:38:44.949Z,2.20
2018-05-08T20:41:12.690Z,2.63
2018-05-08T20:43:40.258Z,2.13
2018-05-08T20:46:07.758Z,2.20
2018-05-08T20:48:35.248Z,2.30
2018-05-08T20:51:02.750Z,2.80
2018-05-08T20:53:30.243Z,2.40
2018-05-08T20:55:58.069Z,2.43
2018-05-08T20:58:25.778Z,2.73
2018-05-08T21:00:53.354Z,2.63
2018-05-08T21:03:20.861Z,2.17
2018-05-08T21:05:48.367Z,2.50
2018-05-08T21:08:15.937Z,2.63
2018-05-08T21:10:43.396Z,2.80
2018-05-08T21:13:10.893Z,2.40
2018-05-08T21:15:38.462Z,2.40
2018-05-08T21:18:06.073Z,2.70
2018-05-08T21:20:33.573Z,2.50
2018-05-08T21:23:01.082Z,2.57
2018-05-08T21:25:28.583Z,2.93
2018-05-08T21:28:01.685Z,2.77
2018-05-08T21:30:47.970Z,2.33
2018-05-08T21:33:15.434Z,2.50
2018-05-08T21:35:42.943Z,2.37
2018-05-08T21:38:10.438Z,2.50
2018-05-08T21:40:37.941Z,2.20
2018-05-08T21:43:05.427Z,2.20
2018-05-08T21:45:32.916Z,2.30
2018-05-08T21:48:00.454Z,2.57
2018-05-08T21:50:27.950Z,2.20
2018-05-08T21:52:55.445Z,2.30
2018-05-08T21:55:22.944Z,2.27
2018-05-08T21:57:50.457Z,1.80
2018-05-08T22:00:17.972Z,2.17
2018-05-08T22:02:45.543Z,1.83
2018-05-08T22:05:13.056Z,2.10
2018-05-08T22:07:40.573Z,2.07
2018-05-08T22:10:08.067Z,1.73
2018-05-08T22:12:35.561Z,1.93
2018-05-08T22:15:03.193Z,2.13
2018-05-08T22:17:30.690Z,2.13
2018-05-08T22:19:58.769Z,2.33
2018-05-08T22:22:26.279Z,2.10
2018-05-08T22:24:53.766Z,2.20
2018-05-08T22:27:21.284Z,1.80
2018-05-08T22:29:48.778Z,2.53
2018-05-08T22:32:16.334Z,1.93
2018-05-08T22:34:43.854Z,2.23
2018-05-08T22:37:11.357Z,2.17
2018-05-08T22:39:38.852Z,2.10
2018-05-08T22:42:06.350Z,2.10
2018-05-08T22:44:33.871Z,2.07
2018-05-08T22:47:01.361Z,1.90
2018-05-08T22:49:28.878Z,2.00
2018-05-08T22:51:56.470Z,1.97
2018-05-08T22:54:23.980Z,1.90
2018-05-08T22:56:51.501Z,2.23
2018-05-08T22:59:18.998Z,1.87
2018-05-08T23:01:46.530Z,2.00
2018-05-08T23:04:14.026Z,2.00
2018-05-08T23:06:41.519Z,2.13
2018-05-08T23:09:09.077Z,2.20
2018-05-08T23:11:36.586Z,2.10
2018-05-08T23:14:04.140Z,2.30
2018-05-08T23:16:31.637Z,2.37
2018-05-08T23:18:59.178Z,2.40
2018-05-08T23:21:26.677Z,2.90
2018-05-08T23:23:54.234Z,2.60
2018-05-08T23:26:21.726Z,2.20
2018-05-08T23:28:49.229Z,2.60
2018-05-08T23:31:16.731Z,2.63
2018-05-08T23:33:44.241Z,2.20
2018-05-08T23:36:11.739Z,2.47
2018-05-08T23:38:39.233Z,2.90
2018-05-08T23:41:06.729Z,2.23
2018-05-08T23:43:34.217Z,2.50
2018-05-08T23:46:01.713Z,2.40
2018-05-08T23:48:29.219Z,2.50
2018-05-08T23:50:56.713Z,2.60
2018-05-08T23:53:24.240Z,2.73
2018-05-08T23:55:51.812Z,2.23
2018-05-08T23:58:19.339Z,2.23
